sensor_id;sensor_type;location;lat;lon;timestamp;P1;durP1;ratioP1;P2;durP2;ratioP2
36629;SDS011;36256;42.154;23.002;2023-03-05T00:00:52;26.33;;;17.55;;
36629;SDS011;36256;42.154;23.002;2023-03-05T00:03:19;28.40;;;17.70;;
36629;SDS011;36256;42.154;23.002;2023-03-05T00:05:46;30.52;;;18.45;;
36629;SDS011;36256;42.154;23.002;2023-03-05T00:08:12;28.55;;;19.00;;
36629;SDS011;36256;42.154;23.002;2023-03-05T00:10:39;30.90;;;18.80;;
36629;SDS011;36256;42.154;23.002;2023-03-05T00:13:06;29.10;;;19.25;;
36629;SDS011;36256;42.154;23.002;2023-03-05T00:15:33;29.08;;;18.65;;
36629;SDS011;36256;42.154;23.002;2023-03-05T00:18:05;27.52;;;18.35;;
36629;SDS011;36256;42.154;23.002;2023-03-05T00:20:33;26.77;;;17.97;;
36629;SDS011;36256;42.154;23.002;2023-03-05T00:23:00;25.35;;;15.98;;
36629;SDS011;36256;42.154;23.002;2023-03-05T00:25:27;25.63;;;16.10;;
36629;SDS011;36256;42.154;23.002;2023-03-05T00:27:53;18.83;;;10.97;;
36629;SDS011;36256;42.154;23.002;2023-03-05T00:30:20;23.35;;;14.65;;
36629;SDS011;36256;42.154;23.002;2023-03-05T00:32:47;23.30;;;15.48;;
36629;SDS011;36256;42.154;23.002;2023-03-05T00:35:13;18.25;;;11.27;;
36629;SDS011;36256;42.154;23.002;2023-03-05T00:37:40;25.73;;;17.77;;
36629;SDS011;36256;42.154;23.002;2023-03-05T00:40:06;30.27;;;17.33;;
36629;SDS011;36256;42.154;23.002;2023-03-05T00:42:34;23.55;;;16.30;;
36629;SDS011;36256;42.154;23.002;2023-03-05T00:45:04;27.17;;;18.50;;
36629;SDS011;36256;42.154;23.002;2023-03-05T00:47:32;29.75;;;18.15;;
36629;SDS011;36256;42.154;23.002;2023-03-05T00:49:58;29.42;;;17.60;;
36629;SDS011;36256;42.154;23.002;2023-03-05T00:52:25;25.90;;;17.25;;
36629;SDS011;36256;42.154;23.002;2023-03-05T00:54:52;25.73;;;16.55;;
36629;SDS011;36256;42.154;23.002;2023-03-05T00:57:19;26.08;;;17.38;;
36629;SDS011;36256;42.154;23.002;2023-03-05T00:59:45;27.17;;;16.48;;
36629;SDS011;36256;42.154;23.002;2023-03-05T01:02:12;28.52;;;18.20;;
36629;SDS011;36256;42.154;23.002;2023-03-05T01:04:38;28.88;;;17.85;;
36629;SDS011;36256;42.154;23.002;2023-03-05T01:07:05;28.08;;;16.27;;
36629;SDS011;36256;42.154;23.002;2023-03-05T01:09:32;25.40;;;16.05;;
36629;SDS011;36256;42.154;23.002;2023-03-05T01:11:58;20.27;;;12.17;;
36629;SDS011;36256;42.154;23.002;2023-03-05T01:14:25;24.17;;;15.85;;
36629;SDS011;36256;42.154;23.002;2023-03-05T01:16:53;26.10;;;16.50;;
36629;SDS011;36256;42.154;23.002;2023-03-05T01:19:20;24.15;;;16.40;;
36629;SDS011;36256;42.154;23.002;2023-03-05T01:21:47;29.08;;;16.90;;
36629;SDS011;36256;42.154;23.002;2023-03-05T01:24:13;26.07;;;17.40;;
36629;SDS011;36256;42.154;23.002;2023-03-05T01:26:40;21.97;;;14.03;;
36629;SDS011;36256;42.154;23.002;2023-03-05T01:29:06;27.15;;;18.13;;
36629;SDS011;36256;42.154;23.002;2023-03-05T01:31:33;25.07;;;17.47;;
36629;SDS011;36256;42.154;23.002;2023-03-05T01:33:59;26.52;;;16.70;;
36629;SDS011;36256;42.154;23.002;2023-03-05T01:36:26;24.75;;;16.02;;
36629;SDS011;36256;42.154;23.002;2023-03-05T01:38:53;23.98;;;15.80;;
36629;SDS011;36256;42.154;23.002;2023-03-05T01:41:20;16.83;;;11.52;;
36629;SDS011;36256;42.154;23.002;2023-03-05T01:43:47;26.20;;;15.90;;
36629;SDS011;36256;42.154;23.002;2023-03-05T01:48:49;23.00;;;15.88;;
36629;SDS011;36256;42.154;23.002;2023-03-05T01:51:25;26.25;;;16.88;;
36629;SDS011;36256;42.154;23.002;2023-03-05T01:53:54;25.70;;;17.33;;
36629;SDS011;36256;42.154;23.002;2023-03-05T01:56:23;26.20;;;17.23;;
36629;SDS011;36256;42.154;23.002;2023-03-05T01:58:51;27.10;;;16.83;;
36629;SDS011;36256;42.154;23.002;2023-03-05T02:01:19;26.13;;;17.10;;
36629;SDS011;36256;42.154;23.002;2023-03-05T02:03:46;26.05;;;15.95;;
36629;SDS011;36256;42.154;23.002;2023-03-05T02:06:13;24.17;;;15.75;;
36629;SDS011;36256;42.154;23.002;2023-03-05T02:08:40;28.58;;;16.38;;
36629;SDS011;36256;42.154;23.002;2023-03-05T02:11:06;28.05;;;16.80;;
36629;SDS011;36256;42.154;23.002;2023-03-05T02:13:34;29.13;;;15.98;;
36629;SDS011;36256;42.154;23.002;2023-03-05T02:16:04;26.13;;;16.33;;
36629;SDS011;36256;42.154;23.002;2023-03-05T02:18:31;23.38;;;15.73;;
36629;SDS011;36256;42.154;23.002;2023-03-05T02:20:59;23.33;;;15.63;;
36629;SDS011;36256;42.154;23.002;2023-03-05T02:23:29;25.55;;;16.38;;
36629;SDS011;36256;42.154;23.002;2023-03-05T02:25:59;26.50;;;15.57;;
36629;SDS011;36256;42.154;23.002;2023-03-05T02:31:15;25.05;;;16.65;;
36629;SDS011;36256;42.154;23.002;2023-03-05T02:33:44;24.90;;;15.98;;
36629;SDS011;36256;42.154;23.002;2023-03-05T02:38:38;23.40;;;15.43;;
36629;SDS011;36256;42.154;23.002;2023-03-05T02:41:06;28.75;;;15.77;;
36629;SDS011;36256;42.154;23.002;2023-03-05T02:43:33;25.13;;;16.52;;
36629;SDS011;36256;42.154;23.002;2023-03-05T02:46:00;27.38;;;16.85;;
36629;SDS011;36256;42.154;23.002;2023-03-05T02:48:27;25.05;;;16.52;;
36629;SDS011;36256;42.154;23.002;2023-03-05T02:50:54;23.75;;;15.50;;
36629;SDS011;36256;42.154;23.002;2023-03-05T02:53:21;24.10;;;16.42;;
36629;SDS011;36256;42.154;23.002;2023-03-05T02:55:48;33.75;;;23.98;;
36629;SDS011;36256;42.154;23.002;2023-03-05T02:58:15;35.83;;;24.90;;
36629;SDS011;36256;42.154;23.002;2023-03-05T03:00:43;34.42;;;22.38;;
36629;SDS011;36256;42.154;23.002;2023-03-05T03:03:12;27.13;;;19.35;;
36629;SDS011;36256;42.154;23.002;2023-03-05T03:05:39;26.08;;;16.95;;
36629;SDS011;36256;42.154;23.002;2023-03-05T03:08:06;24.90;;;16.33;;
36629;SDS011;36256;42.154;23.002;2023-03-05T03:10:33;25.83;;;16.33;;
36629;SDS011;36256;42.154;23.002;2023-03-05T03:13:00;26.50;;;15.60;;
36629;SDS011;36256;42.154;23.002;2023-03-05T03:15:27;24.33;;;16.55;;
36629;SDS011;36256;42.154;23.002;2023-03-05T03:17:53;25.17;;;16.80;;
36629;SDS011;36256;42.154;23.002;2023-03-05T03:20:20;27.73;;;17.40;;
36629;SDS011;36256;42.154;23.002;2023-03-05T03:22:47;28.95;;;17.63;;
36629;SDS011;36256;42.154;23.002;2023-03-05T03:25:15;27.25;;;17.23;;
36629;SDS011;36256;42.154;23.002;2023-03-05T03:27:44;32.90;;;19.80;;
36629;SDS011;36256;42.154;23.002;2023-03-05T03:30:11;34.77;;;20.57;;
36629;SDS011;36256;42.154;23.002;2023-03-05T03:32:39;28.00;;;18.73;;
36629;SDS011;36256;42.154;23.002;2023-03-05T03:35:06;22.23;;;14.40;;
36629;SDS011;36256;42.154;23.002;2023-03-05T03:37:32;29.23;;;19.13;;
36629;SDS011;36256;42.154;23.002;2023-03-05T03:39:59;26.50;;;16.23;;
36629;SDS011;36256;42.154;23.002;2023-03-05T03:42:26;26.83;;;17.47;;
36629;SDS011;36256;42.154;23.002;2023-03-05T03:44:52;28.88;;;18.35;;
36629;SDS011;36256;42.154;23.002;2023-03-05T03:47:19;28.17;;;17.65;;
36629;SDS011;36256;42.154;23.002;2023-03-05T03:49:45;27.10;;;18.17;;
36629;SDS011;36256;42.154;23.002;2023-03-05T03:52:12;27.10;;;16.95;;
36629;SDS011;36256;42.154;23.002;2023-03-05T03:54:39;26.45;;;17.48;;
36629;SDS011;36256;42.154;23.002;2023-03-05T03:57:06;27.85;;;17.65;;
36629;SDS011;36256;42.154;23.002;2023-03-05T03:59:32;25.88;;;17.25;;
36629;SDS011;36256;42.154;23.002;2023-03-05T04:01:59;24.90;;;17.70;;
36629;SDS011;36256;42.154;23.002;2023-03-05T04:04:25;30.25;;;18.83;;
36629;SDS011;36256;42.154;23.002;2023-03-05T04:06:54;22.50;;;15.80;;
36629;SDS011;36256;42.154;23.002;2023-03-05T04:09:21;21.95;;;14.40;;
36629;SDS011;36256;42.154;23.002;2023-03-05T04:11:48;21.30;;;14.90;;
36629;SDS011;36256;42.154;23.002;2023-03-05T04:14:14;25.00;;;15.60;;
36629;SDS011;36256;42.154;23.002;2023-03-05T04:16:41;23.38;;;15.40;;
36629;SDS011;36256;42.154;23.002;2023-03-05T04:19:07;24.23;;;15.13;;
36629;SDS011;36256;42.154;23.002;2023-03-05T04:21:34;31.65;;;20.40;;
36629;SDS011;36256;42.154;23.002;2023-03-05T04:24:01;33.03;;;20.13;;
36629;SDS011;36256;42.154;23.002;2023-03-05T04:26:27;30.80;;;21.02;;
36629;SDS011;36256;42.154;23.002;2023-03-05T04:28:54;43.10;;;25.97;;
36629;SDS011;36256;42.154;23.002;2023-03-05T04:31:20;41.50;;;26.90;;
36629;SDS011;36256;42.154;23.002;2023-03-05T04:33:49;37.72;;;25.10;;
36629;SDS011;36256;42.154;23.002;2023-03-05T04:36:15;43.67;;;28.33;;
36629;SDS011;36256;42.154;23.002;2023-03-05T04:38:42;39.75;;;25.33;;
36629;SDS011;36256;42.154;23.002;2023-03-05T04:41:08;37.80;;;22.50;;
36629;SDS011;36256;42.154;23.002;2023-03-05T04:43:35;26.35;;;17.35;;
36629;SDS011;36256;42.154;23.002;2023-03-05T04:46:01;25.50;;;16.33;;
36629;SDS011;36256;42.154;23.002;2023-03-05T04:48:28;22.02;;;15.52;;
36629;SDS011;36256;42.154;23.002;2023-03-05T04:50:55;21.77;;;15.30;;
36629;SDS011;36256;42.154;23.002;2023-03-05T04:53:24;24.02;;;14.75;;
36629;SDS011;36256;42.154;23.002;2023-03-05T04:55:52;30.17;;;17.20;;
36629;SDS011;36256;42.154;23.002;2023-03-05T04:58:20;24.20;;;16.77;;
36629;SDS011;36256;42.154;23.002;2023-03-05T05:00:47;23.50;;;15.32;;
36629;SDS011;36256;42.154;23.002;2023-03-05T05:03:14;28.13;;;16.65;;
36629;SDS011;36256;42.154;23.002;2023-03-05T05:05:41;21.60;;;11.60;;
36629;SDS011;36256;42.154;23.002;2023-03-05T05:08:08;24.63;;;16.25;;
36629;SDS011;36256;42.154;23.002;2023-03-05T05:10:35;29.00;;;19.23;;
36629;SDS011;36256;42.154;23.002;2023-03-05T05:13:05;31.67;;;21.25;;
36629;SDS011;36256;42.154;23.002;2023-03-05T05:15:32;27.38;;;17.63;;
36629;SDS011;36256;42.154;23.002;2023-03-05T05:17:58;27.65;;;16.98;;
36629;SDS011;36256;42.154;23.002;2023-03-05T05:20:25;25.43;;;16.47;;
36629;SDS011;36256;42.154;23.002;2023-03-05T05:22:52;27.47;;;15.23;;
36629;SDS011;36256;42.154;23.002;2023-03-05T05:25:18;21.73;;;15.43;;
36629;SDS011;36256;42.154;23.002;2023-03-05T05:27:45;24.23;;;15.50;;
36629;SDS011;36256;42.154;23.002;2023-03-05T05:30:11;24.77;;;15.77;;
36629;SDS011;36256;42.154;23.002;2023-03-05T05:32:38;30.00;;;16.33;;
36629;SDS011;36256;42.154;23.002;2023-03-05T05:35:05;33.08;;;19.00;;
36629;SDS011;36256;42.154;23.002;2023-03-05T05:37:32;28.60;;;17.67;;
36629;SDS011;36256;42.154;23.002;2023-03-05T05:39:58;30.13;;;17.15;;
36629;SDS011;36256;42.154;23.002;2023-03-05T05:42:25;23.70;;;15.35;;
36629;SDS011;36256;42.154;23.002;2023-03-05T05:44:52;15.43;;;10.55;;
36629;SDS011;36256;42.154;23.002;2023-03-05T05:47:20;22.27;;;14.98;;
36629;SDS011;36256;42.154;23.002;2023-03-05T05:49:47;25.17;;;14.45;;
36629;SDS011;36256;42.154;23.002;2023-03-05T05:52:13;23.20;;;15.63;;
36629;SDS011;36256;42.154;23.002;2023-03-05T05:54:40;25.38;;;15.73;;
36629;SDS011;36256;42.154;23.002;2023-03-05T05:57:07;23.05;;;15.23;;
36629;SDS011;36256;42.154;23.002;2023-03-05T05:59:34;26.33;;;16.25;;
36629;SDS011;36256;42.154;23.002;2023-03-05T06:02:00;25.30;;;15.63;;
36629;SDS011;36256;42.154;23.002;2023-03-05T06:04:27;20.60;;;12.32;;
36629;SDS011;36256;42.154;23.002;2023-03-05T06:06:54;27.00;;;15.50;;
36629;SDS011;36256;42.154;23.002;2023-03-05T06:09:20;26.77;;;16.50;;
36629;SDS011;36256;42.154;23.002;2023-03-05T06:11:47;25.47;;;16.80;;
36629;SDS011;36256;42.154;23.002;2023-03-05T06:14:13;26.60;;;17.73;;
36629;SDS011;36256;42.154;23.002;2023-03-05T06:16:40;30.60;;;18.33;;
36629;SDS011;36256;42.154;23.002;2023-03-05T06:19:07;30.27;;;18.15;;
36629;SDS011;36256;42.154;23.002;2023-03-05T06:21:37;31.75;;;19.02;;
36629;SDS011;36256;42.154;23.002;2023-03-05T06:24:03;33.38;;;19.58;;
36629;SDS011;36256;42.154;23.002;2023-03-05T06:26:31;29.92;;;18.77;;
36629;SDS011;36256;42.154;23.002;2023-03-05T06:28:58;31.92;;;18.27;;
36629;SDS011;36256;42.154;23.002;2023-03-05T06:31:25;30.75;;;18.40;;
36629;SDS011;36256;42.154;23.002;2023-03-05T06:33:54;32.33;;;18.75;;
36629;SDS011;36256;42.154;23.002;2023-03-05T06:36:23;31.80;;;18.48;;
36629;SDS011;36256;42.154;23.002;2023-03-05T06:38:51;32.38;;;19.73;;
36629;SDS011;36256;42.154;23.002;2023-03-05T06:41:20;36.13;;;20.77;;
36629;SDS011;36256;42.154;23.002;2023-03-05T06:43:48;36.85;;;20.05;;
36629;SDS011;36256;42.154;23.002;2023-03-05T06:46:25;31.88;;;16.52;;
36629;SDS011;36256;42.154;23.002;2023-03-05T06:48:54;35.25;;;21.35;;
36629;SDS011;36256;42.154;23.002;2023-03-05T06:51:30;36.05;;;21.67;;
36629;SDS011;36256;42.154;23.002;2023-03-05T06:53:59;36.30;;;21.25;;
36629;SDS011;36256;42.154;23.002;2023-03-05T06:56:30;36.53;;;20.52;;
36629;SDS011;36256;42.154;23.002;2023-03-05T06:58:57;40.28;;;21.02;;
36629;SDS011;36256;42.154;23.002;2023-03-05T07:01:24;37.83;;;21.45;;
36629;SDS011;36256;42.154;23.002;2023-03-05T07:03:51;42.97;;;21.02;;
36629;SDS011;36256;42.154;23.002;2023-03-05T07:06:20;40.72;;;21.13;;
36629;SDS011;36256;42.154;23.002;2023-03-05T07:08:47;38.05;;;20.60;;
36629;SDS011;36256;42.154;23.002;2023-03-05T07:11:18;41.10;;;21.30;;
36629;SDS011;36256;42.154;23.002;2023-03-05T07:13:46;40.63;;;22.10;;
36629;SDS011;36256;42.154;23.002;2023-03-05T07:18:43;38.17;;;20.98;;
36629;SDS011;36256;42.154;23.002;2023-03-05T07:21:10;38.40;;;21.60;;
36629;SDS011;36256;42.154;23.002;2023-03-05T07:23:40;38.83;;;21.48;;
36629;SDS011;36256;42.154;23.002;2023-03-05T07:26:07;37.23;;;21.23;;
36629;SDS011;36256;42.154;23.002;2023-03-05T07:28:34;36.15;;;21.60;;
36629;SDS011;36256;42.154;23.002;2023-03-05T07:31:01;40.10;;;21.10;;
36629;SDS011;36256;42.154;23.002;2023-03-05T07:33:30;38.92;;;21.98;;
36629;SDS011;36256;42.154;23.002;2023-03-05T07:38:23;41.20;;;22.38;;
36629;SDS011;36256;42.154;23.002;2023-03-05T07:40:50;41.38;;;22.42;;
36629;SDS011;36256;42.154;23.002;2023-03-05T07:43:17;42.47;;;20.92;;
36629;SDS011;36256;42.154;23.002;2023-03-05T07:45:44;54.20;;;29.37;;
36629;SDS011;36256;42.154;23.002;2023-03-05T07:48:12;50.42;;;26.92;;
36629;SDS011;36256;42.154;23.002;2023-03-05T07:50:40;40.85;;;22.73;;
36629;SDS011;36256;42.154;23.002;2023-03-05T07:53:08;37.75;;;21.05;;
36629;SDS011;36256;42.154;23.002;2023-03-05T07:55:40;42.47;;;22.95;;
36629;SDS011;36256;42.154;23.002;2023-03-05T07:58:12;39.63;;;21.42;;
36629;SDS011;36256;42.154;23.002;2023-03-05T08:00:39;36.17;;;20.85;;
36629;SDS011;36256;42.154;23.002;2023-03-05T08:03:06;41.10;;;20.88;;
36629;SDS011;36256;42.154;23.002;2023-03-05T08:05:33;35.78;;;21.17;;
36629;SDS011;36256;42.154;23.002;2023-03-05T08:08:00;36.55;;;20.52;;
36629;SDS011;36256;42.154;23.002;2023-03-05T08:10:26;41.97;;;21.30;;
36629;SDS011;36256;42.154;23.002;2023-03-05T08:12:53;39.10;;;20.35;;
36629;SDS011;36256;42.154;23.002;2023-03-05T08:15:19;36.28;;;20.63;;
36629;SDS011;36256;42.154;23.002;2023-03-05T08:17:46;38.30;;;21.20;;
36629;SDS011;36256;42.154;23.002;2023-03-05T08:20:13;38.57;;;19.47;;
36629;SDS011;36256;42.154;23.002;2023-03-05T08:22:39;39.38;;;20.17;;
36629;SDS011;36256;42.154;23.002;2023-03-05T08:25:06;41.60;;;21.75;;
36629;SDS011;36256;42.154;23.002;2023-03-05T08:27:41;34.08;;;19.70;;
36629;SDS011;36256;42.154;23.002;2023-03-05T08:30:13;41.22;;;21.20;;
36629;SDS011;36256;42.154;23.002;2023-03-05T08:32:43;40.67;;;22.38;;
36629;SDS011;36256;42.154;23.002;2023-03-05T08:35:10;39.78;;;22.85;;
36629;SDS011;36256;42.154;23.002;2023-03-05T08:37:37;42.78;;;24.00;;
36629;SDS011;36256;42.154;23.002;2023-03-05T08:40:04;39.20;;;20.87;;
36629;SDS011;36256;42.154;23.002;2023-03-05T08:44:57;39.60;;;19.60;;
36629;SDS011;36256;42.154;23.002;2023-03-05T08:47:24;38.42;;;20.90;;
36629;SDS011;36256;42.154;23.002;2023-03-05T08:49:52;36.45;;;19.58;;
36629;SDS011;36256;42.154;23.002;2023-03-05T08:52:21;35.70;;;20.73;;
36629;SDS011;36256;42.154;23.002;2023-03-05T08:59:41;38.72;;;19.83;;
36629;SDS011;36256;42.154;23.002;2023-03-05T09:02:11;47.50;;;23.10;;
36629;SDS011;36256;42.154;23.002;2023-03-05T09:04:38;42.90;;;22.38;;
36629;SDS011;36256;42.154;23.002;2023-03-05T09:07:05;40.65;;;20.50;;
36629;SDS011;36256;42.154;23.002;2023-03-05T09:09:32;39.40;;;19.10;;
36629;SDS011;36256;42.154;23.002;2023-03-05T09:11:59;35.35;;;19.33;;
36629;SDS011;36256;42.154;23.002;2023-03-05T09:14:27;36.80;;;19.20;;
36629;SDS011;36256;42.154;23.002;2023-03-05T09:19:21;38.15;;;19.95;;
36629;SDS011;36256;42.154;23.002;2023-03-05T09:21:48;34.20;;;19.27;;
36629;SDS011;36256;42.154;23.002;2023-03-05T09:24:15;40.20;;;20.50;;
36629;SDS011;36256;42.154;23.002;2023-03-05T09:26:42;44.65;;;22.65;;
36629;SDS011;36256;42.154;23.002;2023-03-05T09:29:09;40.38;;;21.05;;
36629;SDS011;36256;42.154;23.002;2023-03-05T09:31:36;36.50;;;18.90;;
36629;SDS011;36256;42.154;23.002;2023-03-05T09:34:03;39.28;;;20.73;;
36629;SDS011;36256;42.154;23.002;2023-03-05T09:38:56;33.08;;;17.60;;
36629;SDS011;36256;42.154;23.002;2023-03-05T09:51:38;35.25;;;17.85;;
36629;SDS011;36256;42.154;23.002;2023-03-05T09:56:47;34.17;;;17.92;;
36629;SDS011;36256;42.154;23.002;2023-03-05T09:59:22;29.67;;;16.90;;
36629;SDS011;36256;42.154;23.002;2023-03-05T10:01:50;30.83;;;17.33;;
36629;SDS011;36256;42.154;23.002;2023-03-05T10:04:26;30.05;;;17.02;;
36629;SDS011;36256;42.154;23.002;2023-03-05T10:07:11;29.88;;;16.83;;
36629;SDS011;36256;42.154;23.002;2023-03-05T10:09:44;29.92;;;16.55;;
36629;SDS011;36256;42.154;23.002;2023-03-05T10:15:20;33.45;;;17.23;;
36629;SDS011;36256;42.154;23.002;2023-03-05T10:23:14;27.85;;;16.05;;
36629;SDS011;36256;42.154;23.002;2023-03-05T10:26:03;34.42;;;16.98;;
36629;SDS011;36256;42.154;23.002;2023-03-05T10:46:08;27.65;;;15.88;;
36629;SDS011;36256;42.154;23.002;2023-03-05T10:48:42;31.88;;;16.40;;
36629;SDS011;36256;42.154;23.002;2023-03-05T10:51:24;33.42;;;16.30;;
36629;SDS011;36256;42.154;23.002;2023-03-05T10:54:17;28.33;;;16.35;;
36629;SDS011;36256;42.154;23.002;2023-03-05T10:57:12;29.33;;;16.40;;
36629;SDS011;36256;42.154;23.002;2023-03-05T10:59:50;30.27;;;16.65;;
36629;SDS011;36256;42.154;23.002;2023-03-05T11:02:19;28.08;;;16.52;;
36629;SDS011;36256;42.154;23.002;2023-03-05T11:04:47;29.02;;;15.85;;
36629;SDS011;36256;42.154;23.002;2023-03-05T11:09:42;29.43;;;16.20;;
36629;SDS011;36256;42.154;23.002;2023-03-05T11:12:33;27.92;;;15.35;;
36629;SDS011;36256;42.154;23.002;2023-03-05T11:17:46;23.45;;;14.77;;
36629;SDS011;36256;42.154;23.002;2023-03-05T11:20:29;25.70;;;14.98;;
36629;SDS011;36256;42.154;23.002;2023-03-05T11:26:03;24.85;;;15.30;;
36629;SDS011;36256;42.154;23.002;2023-03-05T11:28:41;26.13;;;15.65;;
36629;SDS011;36256;42.154;23.002;2023-03-05T11:31:30;27.15;;;14.75;;
36629;SDS011;36256;42.154;23.002;2023-03-05T11:36:35;24.05;;;15.60;;
36629;SDS011;36256;42.154;23.002;2023-03-05T11:41:36;23.10;;;14.98;;
36629;SDS011;36256;42.154;23.002;2023-03-05T11:44:11;24.15;;;14.60;;
36629;SDS011;36256;42.154;23.002;2023-03-05T11:46:49;26.48;;;14.52;;
36629;SDS011;36256;42.154;23.002;2023-03-05T11:49:19;25.67;;;14.83;;
36629;SDS011;36256;42.154;23.002;2023-03-05T11:51:58;24.13;;;14.27;;
36629;SDS011;36256;42.154;23.002;2023-03-05T11:54:35;23.42;;;15.23;;
36629;SDS011;36256;42.154;23.002;2023-03-05T11:57:13;25.10;;;14.65;;
36629;SDS011;36256;42.154;23.002;2023-03-05T11:59:42;22.27;;;14.20;;
36629;SDS011;36256;42.154;23.002;2023-03-05T12:02:15;20.88;;;13.82;;
36629;SDS011;36256;42.154;23.002;2023-03-05T12:04:45;24.00;;;15.23;;
36629;SDS011;36256;42.154;23.002;2023-03-05T12:07:14;22.00;;;13.75;;
36629;SDS011;36256;42.154;23.002;2023-03-05T12:09:45;22.65;;;13.90;;
36629;SDS011;36256;42.154;23.002;2023-03-05T12:15:13;20.80;;;13.20;;
36629;SDS011;36256;42.154;23.002;2023-03-05T12:18:12;24.95;;;14.88;;
36629;SDS011;36256;42.154;23.002;2023-03-05T12:20:56;22.67;;;14.38;;
36629;SDS011;36256;42.154;23.002;2023-03-05T12:23:31;26.83;;;14.48;;
36629;SDS011;36256;42.154;23.002;2023-03-05T12:26:10;29.80;;;17.02;;
36629;SDS011;36256;42.154;23.002;2023-03-05T12:38:53;19.58;;;12.63;;
36629;SDS011;36256;42.154;23.002;2023-03-05T12:46:36;22.98;;;13.35;;
36629;SDS011;36256;42.154;23.002;2023-03-05T12:49:34;23.05;;;13.82;;
36629;SDS011;36256;42.154;23.002;2023-03-05T12:52:03;41.45;;;24.50;;
36629;SDS011;36256;42.154;23.002;2023-03-05T12:54:41;24.33;;;15.20;;
36629;SDS011;36256;42.154;23.002;2023-03-05T12:57:16;25.73;;;14.60;;
36629;SDS011;36256;42.154;23.002;2023-03-05T13:02:22;21.23;;;14.13;;
36629;SDS011;36256;42.154;23.002;2023-03-05T13:05:02;21.00;;;12.70;;
36629;SDS011;36256;42.154;23.002;2023-03-05T13:07:40;20.83;;;12.73;;
36629;SDS011;36256;42.154;23.002;2023-03-05T13:10:19;22.33;;;13.23;;
36629;SDS011;36256;42.154;23.002;2023-03-05T13:12:48;21.88;;;14.38;;
36629;SDS011;36256;42.154;23.002;2023-03-05T13:15:18;22.05;;;13.68;;
36629;SDS011;36256;42.154;23.002;2023-03-05T13:17:55;23.92;;;13.88;;
36629;SDS011;36256;42.154;23.002;2023-03-05T13:25:41;20.73;;;14.32;;
36629;SDS011;36256;42.154;23.002;2023-03-05T13:28:10;27.15;;;14.68;;
36629;SDS011;36256;42.154;23.002;2023-03-05T13:30:43;24.98;;;14.32;;
36629;SDS011;36256;42.154;23.002;2023-03-05T13:33:25;24.23;;;14.48;;
36629;SDS011;36256;42.154;23.002;2023-03-05T13:35:53;22.30;;;13.35;;
36629;SDS011;36256;42.154;23.002;2023-03-05T13:38:25;26.42;;;14.35;;
36629;SDS011;36256;42.154;23.002;2023-03-05T13:40:59;22.95;;;14.07;;
36629;SDS011;36256;42.154;23.002;2023-03-05T13:43:28;24.80;;;14.30;;
36629;SDS011;36256;42.154;23.002;2023-03-05T13:45:55;23.73;;;14.93;;
36629;SDS011;36256;42.154;23.002;2023-03-05T13:48:24;24.40;;;15.40;;
36629;SDS011;36256;42.154;23.002;2023-03-05T13:50:56;26.77;;;15.60;;
36629;SDS011;36256;42.154;23.002;2023-03-05T13:53:29;26.67;;;15.40;;
36629;SDS011;36256;42.154;23.002;2023-03-05T13:55:57;23.70;;;15.27;;
36629;SDS011;36256;42.154;23.002;2023-03-05T13:58:40;24.52;;;14.68;;
36629;SDS011;36256;42.154;23.002;2023-03-05T14:03:59;23.98;;;15.15;;
36629;SDS011;36256;42.154;23.002;2023-03-05T14:06:32;24.63;;;14.65;;
36629;SDS011;36256;42.154;23.002;2023-03-05T14:09:06;21.92;;;15.02;;
36629;SDS011;36256;42.154;23.002;2023-03-05T14:11:54;23.67;;;15.23;;
36629;SDS011;36256;42.154;23.002;2023-03-05T14:14:23;24.83;;;16.17;;
36629;SDS011;36256;42.154;23.002;2023-03-05T14:16:51;22.17;;;14.93;;
36629;SDS011;36256;42.154;23.002;2023-03-05T14:19:30;23.63;;;14.75;;
36629;SDS011;36256;42.154;23.002;2023-03-05T14:21:57;24.67;;;14.93;;
36629;SDS011;36256;42.154;23.002;2023-03-05T14:24:25;22.07;;;14.37;;
36629;SDS011;36256;42.154;23.002;2023-03-05T14:27:00;22.60;;;15.18;;
36629;SDS011;36256;42.154;23.002;2023-03-05T14:29:33;27.83;;;15.23;;
36629;SDS011;36256;42.154;23.002;2023-03-05T14:32:07;25.48;;;14.85;;
36629;SDS011;36256;42.154;23.002;2023-03-05T14:34:51;26.13;;;15.30;;
36629;SDS011;36256;42.154;23.002;2023-03-05T14:37:28;26.80;;;15.73;;
36629;SDS011;36256;42.154;23.002;2023-03-05T14:40:02;30.13;;;16.75;;
36629;SDS011;36256;42.154;23.002;2023-03-05T14:42:50;23.52;;;15.25;;
36629;SDS011;36256;42.154;23.002;2023-03-05T14:45:22;26.90;;;15.50;;
36629;SDS011;36256;42.154;23.002;2023-03-05T14:47:51;23.63;;;15.23;;
36629;SDS011;36256;42.154;23.002;2023-03-05T14:50:20;27.33;;;16.42;;
36629;SDS011;36256;42.154;23.002;2023-03-05T14:52:52;26.73;;;14.90;;
36629;SDS011;36256;42.154;23.002;2023-03-05T14:55:23;26.00;;;15.95;;
36629;SDS011;36256;42.154;23.002;2023-03-05T14:57:51;25.67;;;15.50;;
36629;SDS011;36256;42.154;23.002;2023-03-05T15:00:27;24.92;;;15.55;;
36629;SDS011;36256;42.154;23.002;2023-03-05T15:02:54;25.85;;;16.23;;
36629;SDS011;36256;42.154;23.002;2023-03-05T15:05:21;32.97;;;17.50;;
36629;SDS011;36256;42.154;23.002;2023-03-05T15:07:48;26.30;;;16.20;;
36629;SDS011;36256;42.154;23.002;2023-03-05T15:10:17;26.35;;;15.93;;
36629;SDS011;36256;42.154;23.002;2023-03-05T15:12:45;34.22;;;20.52;;
36629;SDS011;36256;42.154;23.002;2023-03-05T15:15:12;31.40;;;16.77;;
36629;SDS011;36256;42.154;23.002;2023-03-05T15:17:41;27.92;;;17.17;;
36629;SDS011;36256;42.154;23.002;2023-03-05T15:20:10;23.20;;;16.15;;
36629;SDS011;36256;42.154;23.002;2023-03-05T15:22:41;26.08;;;16.35;;
36629;SDS011;36256;42.154;23.002;2023-03-05T15:25:08;30.00;;;16.83;;
36629;SDS011;36256;42.154;23.002;2023-03-05T15:27:35;28.80;;;16.52;;
36629;SDS011;36256;42.154;23.002;2023-03-05T15:30:02;24.05;;;15.82;;
36629;SDS011;36256;42.154;23.002;2023-03-05T15:32:29;32.13;;;17.27;;
36629;SDS011;36256;42.154;23.002;2023-03-05T15:34:57;23.95;;;15.60;;
36629;SDS011;36256;42.154;23.002;2023-03-05T15:37:24;27.33;;;17.15;;
36629;SDS011;36256;42.154;23.002;2023-03-05T15:39:51;27.20;;;16.20;;
36629;SDS011;36256;42.154;23.002;2023-03-05T15:42:18;23.83;;;15.20;;
36629;SDS011;36256;42.154;23.002;2023-03-05T15:44:45;24.95;;;15.65;;
36629;SDS011;36256;42.154;23.002;2023-03-05T15:47:11;23.60;;;15.70;;
36629;SDS011;36256;42.154;23.002;2023-03-05T15:49:38;24.87;;;16.27;;
36629;SDS011;36256;42.154;23.002;2023-03-05T15:52:04;22.03;;;14.73;;
36629;SDS011;36256;42.154;23.002;2023-03-05T15:54:31;28.07;;;16.13;;
36629;SDS011;36256;42.154;23.002;2023-03-05T15:57:00;25.70;;;15.70;;
36629;SDS011;36256;42.154;23.002;2023-03-05T15:59:26;26.17;;;15.43;;
36629;SDS011;36256;42.154;23.002;2023-03-05T16:01:53;23.67;;;14.23;;
36629;SDS011;36256;42.154;23.002;2023-03-05T16:04:19;24.77;;;14.70;;
36629;SDS011;36256;42.154;23.002;2023-03-05T16:06:47;24.45;;;14.40;;